createdAt,value
2018-03-07T00:00:43.203Z,5.49
2018-03-07T00:01:53.264Z,5.57
2018-03-07T00:03:03.315Z,5.6
2018-03-07T00:04:13.369Z,5.55
2018-03-07T00:05:23.155Z,5.51
2018-03-07T00:06:32.736Z,5.7
2018-03-07T00:07:42.808Z,5.67
2018-03-07T00:08:52.862Z,5.63
2018-03-07T00:10:02.399Z,5.7
2018-03-07T00:11:12.478Z,5.66
2018-03-07T00:12:22.598Z,5.54
2018-03-07T00:13:32.658Z,5.63
2018-03-07T00:14:42.468Z,5.57
2018-03-07T00:15:52.584Z,5.62
2018-03-07T00:17:02.649Z,5.54
2018-03-07T00:18:12.719Z,5.7
2018-03-07T00:19:22.799Z,5.7
2018-03-07T00:20:32.926Z,5.62
2018-03-07T00:21:42.995Z,5.66
2018-03-07T00:22:53.068Z,5.75
2018-03-07T00:24:02.865Z,5.7
2018-03-07T00:25:12.934Z,5.73
2018-03-07T00:26:23.019Z,5.7
2018-03-07T00:27:33.079Z,5.73
2018-03-07T00:28:43.144Z,5.7
2018-03-07T00:29:52.953Z,5.73
2018-03-07T00:31:02.492Z,5.78
2018-03-07T00:32:12.560Z,5.73
2018-03-07T00:33:22.634Z,5.75
2018-03-07T00:34:32.695Z,5.67
2018-03-07T00:35:42.761Z,5.72
2018-03-07T00:36:52.805Z,5.66
2018-03-07T00:38:02.855Z,5.7
2018-03-07T00:39:12.661Z,5.66
2018-03-07T00:40:22.736Z,5.63
2018-03-07T00:41:32.642Z,5.62
2018-03-07T00:42:42.699Z,5.6
2018-03-07T00:43:52.498Z,5.52
2018-03-07T00:45:02.277Z,5.59
2018-03-07T00:46:11.835Z,5.45
2018-03-07T00:47:21.636Z,5.45
2018-03-07T00:48:31.183Z,5.57
2018-03-07T00:49:40.732Z,5.49
2018-03-07T00:50:50.787Z,5.52
2018-03-07T00:52:00.876Z,5.42
2018-03-07T00:53:10.159Z,5.42
2018-03-07T00:54:20.219Z,5.46
2018-03-07T00:55:30.030Z,5.45
2018-03-07T00:56:39.839Z,5.44
2018-03-07T00:57:49.641Z,5.34
2018-03-07T00:58:59.455Z,5.44
2018-03-07T01:00:09.575Z,5.36
2018-03-07T01:01:19.660Z,5.36
2018-03-07T01:02:29.464Z,5.27
2018-03-07T01:03:39.510Z,5.26
2018-03-07T01:04:49.571Z,5.2
2018-03-07T01:05:59.665Z,5.1
2018-03-07T01:07:09.748Z,4.98
2018-03-07T01:08:19.786Z,5.06
2018-03-07T01:09:29.859Z,5.02
2018-03-07T01:10:39.909Z,4.97
2018-03-07T01:11:49.963Z,5.06
2018-03-07T01:13:00.033Z,5.06
2018-03-07T01:14:10.070Z,5.06
2018-03-07T01:15:20.116Z,5.21
2018-03-07T01:16:30.171Z,5.06
2018-03-07T01:17:40.231Z,5.3
2018-03-07T01:18:50.292Z,5.16
2018-03-07T01:20:00.345Z,5.16
2018-03-07T01:21:10.156Z,5.16
2018-03-07T01:22:20.253Z,5.1
2018-03-07T01:23:30.065Z,5.06
2018-03-07T01:24:40.137Z,5.09
2018-03-07T01:25:50.193Z,5.12
2018-03-07T01:27:00.243Z,5.2
2018-03-07T01:28:10.311Z,5.3
2018-03-07T01:29:20.361Z,5.37
2018-03-07T01:30:30.413Z,5.36
2018-03-07T01:31:40.195Z,5.36
2018-03-07T01:32:49.999Z,5.36
2018-03-07T01:33:59.534Z,5.34
2018-03-07T01:35:09.594Z,5.34
2018-03-07T01:36:19.669Z,5.31
2018-03-07T01:37:29.737Z,5.34
2018-03-07T01:38:39.538Z,5.28
2018-03-07T01:39:49.654Z,5.2
2018-03-07T01:40:59.193Z,5.23
2018-03-07T01:42:09.259Z,5.16
2018-03-07T01:43:19.318Z,5.02
2018-03-07T01:44:29.120Z,5
2018-03-07T01:45:39.167Z,5.02
2018-03-07T01:46:49.244Z,4.97
2018-03-07T01:47:59.302Z,4.84
2018-03-07T01:49:09.360Z,4.9
2018-03-07T01:50:19.412Z,4.88
2018-03-07T01:51:29.456Z,4.85
2018-03-07T01:52:39.507Z,4.74
2018-03-07T01:53:49.562Z,4.85
2018-03-07T01:54:59.616Z,4.79
2018-03-07T01:56:09.674Z,4.72
2018-03-07T01:57:19.486Z,4.78
2018-03-07T01:58:29.285Z,4.78
2018-03-07T01:59:39.083Z,4.75
2018-03-07T02:00:49.146Z,4.84
2018-03-07T02:01:59.193Z,4.83
2018-03-07T02:03:09.036Z,4.68
2018-03-07T02:04:18.823Z,4.72
2018-03-07T02:05:28.892Z,4.72
2018-03-07T02:06:38.678Z,4.84
2018-03-07T02:07:48.490Z,4.95
2018-03-07T02:08:58.345Z,4.94
2018-03-07T02:10:08.151Z,4.92
2018-03-07T02:11:18.211Z,5.03
2018-03-07T02:12:28.023Z,5.08
2018-03-07T02:13:37.813Z,5.03
2018-03-07T02:14:47.918Z,5.03
2018-03-07T02:15:57.968Z,5.09
2018-03-07T02:17:07.770Z,5.21
2018-03-07T02:18:17.554Z,5.23
2018-03-07T02:19:27.643Z,5.27
2018-03-07T02:20:37.231Z,5.34
2018-03-07T02:21:47.033Z,5.41
2018-03-07T02:22:56.848Z,5.42
2018-03-07T02:24:06.910Z,5.36
2018-03-07T02:25:16.958Z,5.37
2018-03-07T02:26:27.023Z,5.24
2018-03-07T02:27:36.536Z,5.28
2018-03-07T02:28:46.330Z,5.41
2018-03-07T02:29:56.136Z,5.33
2018-03-07T02:31:05.999Z,5.36
2018-03-07T02:32:15.528Z,5.39
2018-03-07T02:33:25.321Z,5.36
2018-03-07T02:34:35.431Z,5.34
2018-03-07T02:35:45.232Z,5.41
2018-03-07T02:36:55.357Z,5.48
2018-03-07T02:38:05.172Z,5.41
2018-03-07T02:39:15.244Z,5.41
2018-03-07T02:40:24.797Z,5.51
2018-03-07T02:41:34.863Z,5.48
2018-03-07T02:42:44.928Z,5.59
2018-03-07T02:43:54.470Z,5.57
2018-03-07T02:45:04.268Z,5.57
2018-03-07T02:46:14.348Z,5.62
2018-03-07T02:47:24.437Z,5.64
2018-03-07T02:48:34.249Z,5.69
2018-03-07T02:49:44.328Z,5.72
2018-03-07T02:50:54.404Z,5.6
2018-03-07T02:52:04.475Z,5.63
2018-03-07T02:53:14.267Z,5.66
2018-03-07T02:54:24.342Z,5.72
2018-03-07T02:55:34.153Z,5.67
2018-03-07T02:56:44.217Z,5.7
2018-03-07T02:57:54.308Z,5.66
2018-03-07T02:59:04.376Z,5.72
2018-03-07T03:00:14.541Z,5.64
2018-03-07T03:01:24.608Z,5.75
2018-03-07T03:02:34.674Z,5.72
2018-03-07T03:03:44.488Z,5.66
2018-03-07T03:04:54.598Z,5.55
2018-03-07T03:06:04.412Z,5.52
2018-03-07T03:07:14.514Z,5.48
2018-03-07T03:08:24.576Z,5.42
2018-03-07T03:39:56.709Z,2.62
2018-03-07T03:41:06.854Z,2.6
2018-03-07T03:42:16.922Z,2.67
2018-03-07T03:43:26.722Z,2.6
2018-03-07T03:44:36.769Z,2.63
2018-03-07T03:45:46.941Z,2.83
2018-03-07T03:46:56.980Z,2.8
2018-03-07T03:48:06.260Z,2.96
2018-03-07T03:49:16.384Z,3.13
2018-03-07T03:50:26.441Z,3.37
2018-03-07T03:51:36.540Z,3.37
2018-03-07T03:52:46.612Z,3.53
2018-03-07T03:53:56.666Z,3.71
2018-03-07T03:55:06.733Z,3.79
2018-03-07T03:56:16.808Z,4.03
2018-03-07T03:57:26.623Z,4.14
2018-03-07T03:58:36.673Z,4.24
2018-03-07T03:59:46.212Z,4.21
2018-03-07T04:00:56.014Z,4.3
2018-03-07T04:02:06.069Z,4.42
2018-03-07T04:03:15.919Z,4.4
2018-03-07T04:04:25.729Z,4.53
2018-03-07T04:05:35.863Z,4.57
2018-03-07T04:06:45.916Z,4.57
2018-03-07T04:07:55.964Z,4.56
2018-03-07T04:09:06.075Z,4.6
2018-03-07T04:10:16.121Z,4.65
2018-03-07T04:11:26.163Z,4.65
2018-03-07T04:12:35.945Z,4.75
2018-03-07T04:13:46.001Z,4.65
2018-03-07T04:14:55.802Z,4.68
2018-03-07T04:16:05.607Z,4.68
2018-03-07T04:17:15.652Z,4.78
2018-03-07T04:18:25.182Z,4.83
2018-03-07T04:19:34.985Z,4.83
2018-03-07T04:20:44.836Z,4.87
2018-03-07T04:21:54.897Z,4.87
2018-03-07T04:23:04.975Z,4.84
2018-03-07T04:24:15.029Z,4.84
2018-03-07T04:25:25.095Z,4.79
2018-03-07T04:26:35.286Z,4.88
2018-03-07T04:27:45.347Z,4.92
2018-03-07T04:28:55.399Z,4.97
2018-03-07T04:30:05.465Z,4.87
2018-03-07T04:31:15.262Z,4.83
2018-03-07T04:32:25.317Z,4.84
2018-03-07T04:33:35.381Z,4.85
2018-03-07T04:34:45.455Z,4.84
2018-03-07T04:35:55.503Z,4.84
2018-03-07T04:37:05.289Z,4.78
2018-03-07T04:38:15.076Z,4.74
2018-03-07T04:39:24.864Z,4.75
2018-03-07T04:40:34.933Z,4.75
2018-03-07T04:41:44.814Z,4.74
2018-03-07T04:42:54.650Z,4.71
2018-03-07T04:44:04.751Z,4.72
2018-03-07T04:45:14.528Z,4.58
2018-03-07T04:46:24.581Z,4.69
2018-03-07T04:47:34.393Z,4.72
2018-03-07T04:48:44.181Z,4.74
2018-03-07T04:49:54.021Z,4.69
2018-03-07T04:51:03.544Z,4.68
2018-03-07T04:52:13.603Z,4.61
2018-03-07T04:53:23.667Z,4.66
2018-03-07T04:54:33.212Z,4.61
2018-03-07T04:55:43.045Z,4.6
2018-03-07T04:56:52.831Z,4.51
2018-03-07T04:58:02.647Z,4.58
2018-03-07T04:59:12.175Z,4.64
2018-03-07T05:00:22.259Z,4.53
2018-03-07T05:01:32.452Z,4.54
2018-03-07T05:02:42.713Z,4.66
2018-03-07T05:03:53.004Z,4.65
2018-03-07T05:05:02.799Z,4.61
2018-03-07T05:06:12.850Z,4.61
2018-03-07T05:07:22.711Z,4.68
2018-03-07T05:08:32.514Z,4.69
2018-03-07T05:09:42.586Z,4.58
2018-03-07T05:10:52.398Z,4.65
2018-03-07T05:12:02.217Z,4.58
2018-03-07T05:13:11.999Z,4.72
2018-03-07T05:14:22.230Z,4.75
2018-03-07T05:15:32.283Z,4.75
2018-03-07T05:16:42.346Z,4.74
2018-03-07T05:17:52.137Z,4.76
2018-03-07T05:19:02.196Z,4.75
2018-03-07T05:20:12.261Z,4.75
2018-03-07T05:21:22.314Z,4.76
2018-03-07T05:22:32.385Z,4.85
2018-03-07T05:23:42.447Z,4.85
2018-03-07T05:24:52.292Z,4.79
2018-03-07T05:26:02.100Z,4.9
2018-03-07T05:27:12.188Z,4.88
2018-03-07T05:28:22.257Z,4.85
2018-03-07T05:29:32.308Z,4.91
2018-03-07T05:30:42.412Z,4.94
2018-03-07T05:31:52.465Z,4.85
2018-03-07T05:33:02.510Z,4.94
2018-03-07T05:34:12.054Z,4.85
2018-03-07T05:35:21.893Z,4.83
2018-03-07T05:36:31.950Z,4.98
2018-03-07T05:37:42.012Z,4.95
2018-03-07T05:38:51.827Z,4.94
2018-03-07T05:40:01.627Z,4.97
2018-03-07T05:41:11.691Z,5.03
2018-03-07T05:42:21.482Z,5.06
2018-03-07T05:43:31.537Z,5.06
2018-03-07T05:44:41.584Z,5.09
2018-03-07T05:45:51.722Z,5.08
2018-03-07T05:47:01.776Z,5.18
2018-03-07T05:48:11.328Z,5.2
2018-03-07T05:49:21.125Z,5.1
2018-03-07T05:50:31.186Z,5.16
2018-03-07T05:51:40.976Z,5.27
2018-03-07T05:52:51.052Z,5.21
2018-03-07T05:54:01.126Z,5.3
2018-03-07T05:55:10.934Z,5.26
2018-03-07T05:56:20.993Z,5.31
2018-03-07T05:57:30.839Z,5.34
2018-03-07T05:58:40.905Z,5.27
2018-03-07T05:59:50.971Z,5.41
2018-03-07T06:01:00.787Z,5.46
2018-03-07T06:02:10.605Z,5.46
2018-03-07T06:03:20.657Z,5.51
2018-03-07T06:04:30.723Z,5.57
2018-03-07T06:05:40.522Z,5.55
2018-03-07T06:06:50.598Z,5.7
2018-03-07T06:08:00.648Z,5.63
2018-03-07T06:09:10.506Z,5.69
2018-03-07T06:10:20.559Z,5.78
2018-03-07T06:11:30.604Z,5.72
2018-03-07T06:12:40.417Z,5.8
2018-03-07T06:13:50.489Z,5.87
2018-03-07T06:15:00.546Z,5.88
2018-03-07T06:16:10.616Z,5.85
2018-03-07T06:17:20.677Z,5.96
2018-03-07T06:18:30.471Z,6.06
2018-03-07T06:19:40.525Z,6.15
2018-03-07T06:20:50.368Z,6.36
2018-03-07T06:22:00.161Z,6.44
2018-03-07T06:23:10.218Z,6.72
2018-03-07T06:24:20.279Z,6.8
2018-03-07T06:25:30.366Z,6.86
2018-03-07T06:26:40.156Z,6.94
2018-03-07T06:27:49.995Z,6.94
2018-03-07T06:29:00.053Z,6.97
2018-03-07T06:30:09.853Z,6.97
2018-03-07T06:31:19.929Z,6.97
2018-03-07T06:32:29.797Z,7.01
2018-03-07T06:33:39.854Z,7.01
2018-03-07T06:34:49.908Z,7.18
2018-03-07T06:35:59.710Z,7.09
2018-03-07T06:37:09.532Z,7.08
2018-03-07T06:38:19.610Z,7.15
2018-03-07T06:39:29.412Z,7.04
2018-03-07T06:40:39.199Z,7.03
2018-03-07T06:41:49.270Z,7
2018-03-07T06:42:59.071Z,6.94
2018-03-07T06:44:09.128Z,6.85
2018-03-07T06:45:19.185Z,6.83
2018-03-07T06:46:29.083Z,6.75
2018-03-07T06:47:39.160Z,6.72
2018-03-07T06:48:49.235Z,6.75
2018-03-07T06:49:59.047Z,6.64
2018-03-07T06:51:08.854Z,6.72
2018-03-07T06:52:18.646Z,6.65
2018-03-07T06:53:28.701Z,6.76
2018-03-07T06:54:38.239Z,6.72
2018-03-07T06:55:48.028Z,6.76
2018-03-07T06:56:58.089Z,6.75
2018-03-07T06:58:08.124Z,6.78
2018-03-07T06:59:17.938Z,6.82
2018-03-07T07:00:28.017Z,6.8
2018-03-07T07:01:38.076Z,6.79
2018-03-07T07:02:48.131Z,6.8
2018-03-07T07:03:57.937Z,6.8
2018-03-07T07:05:08.020Z,6.91
2018-03-07T07:06:17.949Z,6.94
2018-03-07T07:07:28.070Z,7
2018-03-07T07:08:37.860Z,7.08
2018-03-07T07:09:47.924Z,6.98
2018-03-07T07:10:57.983Z,6.94
2018-03-07T07:12:07.790Z,7.09
2018-03-07T07:13:17.597Z,7.11
2018-03-07T07:14:27.389Z,7.13
2018-03-07T07:15:37.461Z,7.03
2018-03-07T07:16:47.569Z,7.08
2018-03-07T07:17:57.444Z,7.09
2018-03-07T07:19:07.526Z,7.22
2018-03-07T07:20:17.338Z,7.21
2018-03-07T07:21:26.956Z,7.23
2018-03-07T07:22:36.753Z,7.3
2018-03-07T07:23:46.284Z,7.36
2018-03-07T07:24:56.098Z,7.44
2018-03-07T07:26:06.190Z,7.39
2018-03-07T07:27:16.248Z,7.41
2018-03-07T07:28:26.057Z,7.59
2018-03-07T07:29:36.131Z,7.58
2018-03-07T07:30:46.187Z,7.75
2018-03-07T07:31:55.972Z,7.73
2018-03-07T07:33:06.032Z,7.77
2018-03-07T07:34:15.868Z,7.68
2018-03-07T07:35:25.677Z,7.64
2018-03-07T07:36:35.481Z,7.63
2018-03-07T07:37:45.571Z,7.58
2018-03-07T07:38:55.392Z,7.54
2018-03-07T07:40:05.187Z,7.56
2018-03-07T07:41:15.247Z,7.68
2018-03-07T07:42:25.043Z,7.67
2018-03-07T07:43:35.135Z,7.59
2018-03-07T07:44:45.200Z,7.64
2018-03-07T07:45:55.261Z,7.7
2018-03-07T07:47:05.341Z,7.71
2018-03-07T07:48:15.414Z,7.74
2018-03-07T07:49:25.223Z,7.78
2018-03-07T07:50:35.313Z,7.71
2018-03-07T07:51:45.375Z,7.74
2018-03-07T07:52:55.489Z,7.77
2018-03-07T07:54:05.282Z,7.82
2018-03-07T07:55:15.084Z,7.91
2018-03-07T07:56:25.163Z,7.86
2018-03-07T07:57:34.948Z,7.83
2018-03-07T07:58:45.096Z,7.91
2018-03-07T07:59:55.174Z,7.89
2018-03-07T08:01:05.274Z,8.03
2018-03-07T08:02:15.077Z,8.13
2018-03-07T08:03:25.209Z,8.16
2018-03-07T08:04:35.277Z,8.31
2018-03-07T08:05:45.076Z,8.29
2018-03-07T08:06:55.133Z,8.5
2018-03-07T08:08:05.186Z,8.44
2018-03-07T08:09:14.714Z,8.54
2018-03-07T08:10:24.783Z,8.72
2018-03-07T08:11:34.578Z,8.83
2018-03-07T08:12:44.429Z,8.94
2018-03-07T08:13:54.494Z,9.19
2018-03-07T08:15:04.065Z,9.2
2018-03-07T08:16:14.123Z,9.34
2018-03-07T08:17:24.205Z,9.47
2018-03-07T08:18:34.272Z,9.67
2018-03-07T08:19:44.317Z,9.64
2018-03-07T08:20:54.371Z,9.7
2018-03-07T08:22:04.449Z,9.8
2018-03-07T08:23:14.520Z,9.71
2018-03-07T08:24:24.602Z,9.77
2018-03-07T08:25:34.689Z,9.88
2018-03-07T08:26:44.491Z,9.92
2018-03-07T08:27:54.549Z,9.98
2018-03-07T08:29:04.619Z,9.98
2018-03-07T08:30:14.482Z,10.25
2018-03-07T08:31:24.542Z,10.44
2018-03-07T08:32:34.064Z,10.47
2018-03-07T08:33:44.140Z,10.73
2018-03-07T08:34:54.201Z,10.84
2018-03-07T08:36:04.066Z,10.9
2018-03-07T08:37:14.129Z,10.9
2018-03-07T08:38:24.184Z,10.9
2018-03-07T08:39:34.264Z,11.03
2018-03-07T08:40:44.067Z,11.08
2018-03-07T08:41:54.177Z,11.12
2018-03-07T08:43:03.963Z,11.16
2018-03-07T08:44:14.026Z,11.23
2018-03-07T08:45:24.093Z,11.38
2018-03-07T08:46:34.169Z,11.41
2018-03-07T08:47:43.758Z,11.45
2018-03-07T08:48:53.819Z,11.49
2018-03-07T08:50:03.933Z,11.51
2018-03-07T08:51:14.013Z,11.48
2018-03-07T08:52:24.093Z,11.68
2018-03-07T08:53:34.145Z,11.84
2018-03-07T08:54:44.193Z,11.91
2018-03-07T08:55:54.157Z,11.98
2018-03-07T08:57:04.222Z,12.07
2018-03-07T08:58:14.278Z,12.1
2018-03-07T08:59:24.341Z,12.16
2018-03-07T09:00:34.462Z,12.26
2018-03-07T09:01:44.617Z,12.34
2018-03-07T09:02:54.397Z,12.36
2018-03-07T09:04:04.466Z,12.33
2018-03-07T09:05:14.550Z,12.34
2018-03-07T09:06:24.095Z,12.25
2018-03-07T09:07:33.888Z,12.31
2018-03-07T09:08:43.947Z,12.38
2018-03-07T09:09:54.023Z,12.43
2018-03-07T09:11:04.100Z,12.48
2018-03-07T09:12:14.157Z,12.45
2018-03-07T09:13:23.978Z,12.47
2018-03-07T09:14:34.042Z,12.51
2018-03-07T09:15:44.118Z,12.48
2018-03-07T09:16:53.653Z,12.59
2018-03-07T09:18:03.716Z,12.58
2018-03-07T09:19:13.774Z,12.62
2018-03-07T09:20:23.849Z,12.62
2018-03-07T09:21:33.958Z,12.65
2018-03-07T09:22:44.028Z,12.78
2018-03-07T09:23:54.090Z,12.88
2018-03-07T09:25:04.156Z,12.74
2018-03-07T09:26:14.235Z,12.86
2018-03-07T09:27:24.302Z,12.83
2018-03-07T09:28:34.113Z,12.77
2018-03-07T09:29:44.186Z,12.61
2018-03-07T09:30:54.256Z,12.55
2018-03-07T09:32:04.331Z,12.41
2018-03-07T09:33:14.394Z,12.16
2018-03-07T09:34:24.474Z,12.16
2018-03-07T09:35:34.576Z,12.1
2018-03-07T09:36:44.376Z,11.97
2018-03-07T09:37:54.431Z,11.91
2018-03-07T09:39:04.500Z,11.81
2018-03-07T09:40:14.564Z,11.81
2018-03-07T09:41:24.365Z,11.75
2018-03-07T09:42:34.169Z,11.73
2018-03-07T09:43:44.235Z,11.84
2018-03-07T09:44:54.037Z,11.95
2018-03-07T09:46:04.125Z,12.2
2018-03-07T09:47:13.941Z,12.45
2018-03-07T09:48:24.450Z,12.55
2018-03-07T09:49:34.510Z,12.78
2018-03-07T09:50:44.574Z,13.01
2018-03-07T09:51:54.663Z,13.17
2018-03-07T09:53:04.459Z,13.65
2018-03-07T09:54:14.534Z,13.78
2018-03-07T09:55:24.064Z,13.97
2018-03-07T09:56:34.514Z,14.34
2018-03-07T09:57:43.552Z,14.64
2018-03-07T09:58:53.622Z,14.67
2018-03-07T10:00:03.685Z,14.66
2018-03-07T10:01:13.492Z,14.64
2018-03-07T10:02:23.294Z,14.69
2018-03-07T10:03:32.853Z,14.7
2018-03-07T10:04:42.665Z,14.83
2018-03-07T10:05:52.466Z,15.05
2018-03-07T10:07:02.589Z,15.18
2018-03-07T10:08:12.853Z,15.34
2018-03-07T10:09:22.934Z,15.53
2018-03-07T10:10:33.010Z,15.67
2018-03-07T10:11:43.082Z,15.86
2018-03-07T10:12:53.155Z,15.95
2018-03-07T10:14:03.225Z,15.98
2018-03-07T10:15:13.112Z,16.04
2018-03-07T10:16:22.659Z,16.17
2018-03-07T10:17:32.520Z,16.08
2018-03-07T10:18:42.593Z,16.13
2018-03-07T10:19:52.460Z,16.1
2018-03-07T10:21:02.571Z,16.34
2018-03-07T10:22:12.696Z,16.55
2018-03-07T10:23:22.251Z,17.13
2018-03-07T10:24:32.055Z,17.43
2018-03-07T10:25:41.932Z,17.87
2018-03-07T10:26:51.730Z,18.19
2018-03-07T10:28:01.566Z,18.53
2018-03-07T10:29:11.129Z,18.78
2018-03-07T10:30:20.664Z,18.65
2018-03-07T10:31:30.536Z,18.47
2018-03-07T10:32:40.624Z,18.61
2018-03-07T10:33:50.433Z,18.89
2018-03-07T10:34:59.959Z,19.25
2018-03-07T10:36:10.019Z,19.68
2018-03-07T10:37:20.103Z,20
2018-03-07T10:38:30.174Z,20.2
2018-03-07T10:39:40.284Z,20.1
2018-03-07T10:40:50.403Z,19.92
2018-03-07T10:42:00.467Z,19.53
2018-03-07T10:43:10.604Z,19.13
2018-03-07T10:44:20.413Z,18.76
2018-03-07T10:45:30.483Z,18.57
2018-03-07T10:46:40.730Z,18.42
2018-03-07T10:47:50.813Z,18.84
2018-03-07T10:49:00.629Z,19.23
2018-03-07T10:50:10.731Z,19.57
2018-03-07T10:51:20.611Z,20.02
2018-03-07T10:52:29.908Z,20.48
2018-03-07T10:53:39.962Z,20.78
2018-03-07T10:54:49.586Z,21.11
2018-03-07T10:55:59.134Z,21.16
2018-03-07T10:57:08.948Z,21.15
2018-03-07T10:58:18.761Z,21.01
2018-03-07T10:59:28.820Z,20.94
2018-03-07T11:00:38.938Z,20.91
2018-03-07T11:01:48.756Z,20.85
2018-03-07T11:02:58.559Z,20.82
2018-03-07T11:04:08.368Z,20.51
2018-03-07T11:05:18.427Z,20.44
2018-03-07T11:06:28.560Z,20.34
2018-03-07T11:07:38.626Z,20.27
2018-03-07T11:08:48.719Z,20.1
2018-03-07T11:09:58.787Z,19.95
2018-03-07T11:11:08.336Z,19.9
2018-03-07T11:12:18.454Z,19.79
2018-03-07T11:13:28.523Z,19.67
2018-03-07T11:14:38.394Z,19.64
2018-03-07T11:15:48.513Z,19.52
2018-03-07T11:16:58.589Z,19.46
2018-03-07T11:18:08.715Z,19.43
2018-03-07T11:19:18.792Z,19.35
2018-03-07T11:20:28.862Z,19.19
2018-03-07T11:21:38.948Z,19.09
2018-03-07T11:22:49.022Z,19
2018-03-07T11:23:59.086Z,18.96
2018-03-07T11:25:09.159Z,19.02
2018-03-07T11:26:19.240Z,18.96
2018-03-07T11:27:29.313Z,18.9
2018-03-07T11:28:39.588Z,18.81
2018-03-07T11:29:49.659Z,18.87
2018-03-07T11:30:59.486Z,18.74
2018-03-07T11:32:09.578Z,18.81
2018-03-07T11:33:19.644Z,18.96
2018-03-07T11:34:29.837Z,19.09
2018-03-07T11:35:39.912Z,19.15
2018-03-07T11:36:49.722Z,19.19
2018-03-07T11:37:59.261Z,19.07
2018-03-07T11:39:09.327Z,18.97
2018-03-07T11:40:19.435Z,18.91
2018-03-07T11:41:29.233Z,18.81
2018-03-07T11:42:39.048Z,18.56
2018-03-07T11:43:48.845Z,18.57
2018-03-07T11:44:58.973Z,18.45
2018-03-07T11:46:08.958Z,18.49
2018-03-07T11:47:18.520Z,18.35
2018-03-07T11:48:28.608Z,18.45
2018-03-07T11:49:38.686Z,18.41
2018-03-07T11:50:48.487Z,18.39
2018-03-07T11:51:58.578Z,18.47
2018-03-07T11:53:08.657Z,18.51
2018-03-07T11:54:18.737Z,18.47
2018-03-07T11:55:28.812Z,18.31
2018-03-07T11:56:38.920Z,18.29
2018-03-07T11:57:49.010Z,18.27
2018-03-07T11:58:58.294Z,18.38
2018-03-07T12:00:08.366Z,18.42
2018-03-07T12:01:18.462Z,18.44
2018-03-07T12:02:28.533Z,18.39
2018-03-07T12:03:38.072Z,18.44
2018-03-07T12:04:47.937Z,18.42
2018-03-07T12:05:57.780Z,18.41
2018-03-07T12:07:07.850Z,18.51
2018-03-07T12:08:18.049Z,18.42
2018-03-07T12:09:28.117Z,18.51
2018-03-07T12:10:38.260Z,19.15
2018-03-07T12:11:48.367Z,19.56
2018-03-07T12:12:58.444Z,19.55
2018-03-07T12:14:08.296Z,19.31
2018-03-07T12:15:18.122Z,19.13
2018-03-07T12:16:28.196Z,18.89
2018-03-07T12:17:38.405Z,18.75
2018-03-07T12:18:48.212Z,18.65
2018-03-07T12:19:58.319Z,18.47
2018-03-07T12:21:08.393Z,18.36
2018-03-07T12:22:18.474Z,18.27
2018-03-07T12:23:28.578Z,18.27
2018-03-07T12:24:38.641Z,18.2
2018-03-07T12:25:48.747Z,18.16
2018-03-07T12:26:58.300Z,17.98
2018-03-07T12:28:07.854Z,17.76
2018-03-07T12:29:17.934Z,17.63
2018-03-07T12:30:28.002Z,17.55
2018-03-07T12:31:38.058Z,17.45
2018-03-07T12:32:47.926Z,17.39
2018-03-07T12:33:57.577Z,17.38
2018-03-07T12:35:07.662Z,17.3
2018-03-07T12:36:17.742Z,17.31
2018-03-07T12:37:27.822Z,17.35
2018-03-07T12:38:37.870Z,17.27
2018-03-07T12:39:47.459Z,17.3
2018-03-07T12:40:57.580Z,17.3
2018-03-07T12:42:07.650Z,17.43
2018-03-07T12:43:17.732Z,17.49
2018-03-07T12:44:27.803Z,17.68
2018-03-07T12:45:37.664Z,17.73
2018-03-07T12:46:47.218Z,17.76
2018-03-07T12:47:57.054Z,17.87
2018-03-07T12:49:06.336Z,17.9
2018-03-07T12:50:16.404Z,17.87
2018-03-07T12:51:26.526Z,17.86
2018-03-07T12:52:36.346Z,17.88
2018-03-07T12:53:46.410Z,17.86
2018-03-07T12:54:56.204Z,17.9
2018-03-07T12:56:06.006Z,17.94
2018-03-07T12:57:15.879Z,17.9
2018-03-07T12:58:25.988Z,17.86
2018-03-07T12:59:36.095Z,17.86
2018-03-07T13:00:46.211Z,17.86
2018-03-07T13:01:56.281Z,17.88
2018-03-07T13:03:06.431Z,17.99
2018-03-07T13:04:16.515Z,18.06
2018-03-07T13:05:26.322Z,18.2
2018-03-07T13:06:36.418Z,18.21
2018-03-07T13:07:46.507Z,18.27
2018-03-07T13:08:56.383Z,18.19
2018-03-07T13:10:06.458Z,18.2
2018-03-07T13:11:16.293Z,18.29
2018-03-07T13:12:26.389Z,18.44
2018-03-07T13:13:36.483Z,18.36
2018-03-07T13:14:46.643Z,18.31
2018-03-07T13:15:56.732Z,18.26
2018-03-07T13:17:06.624Z,18.21
2018-03-07T13:18:16.700Z,18.02
2018-03-07T13:19:26.505Z,17.8
2018-03-07T13:20:36.569Z,17.71
2018-03-07T13:21:46.654Z,17.43
2018-03-07T13:22:56.488Z,17.3
2018-03-07T13:24:06.298Z,17.25
2018-03-07T13:25:16.143Z,17.47
2018-03-07T13:26:26.264Z,17.49
2018-03-07T13:27:36.342Z,17.47
2018-03-07T13:28:46.455Z,17.49
2018-03-07T13:29:56.592Z,17.47
2018-03-07T13:31:06.688Z,17.3
2018-03-07T13:32:16.500Z,17.31
2018-03-07T13:33:26.050Z,17.3
2018-03-07T13:34:35.878Z,17.49
2018-03-07T13:35:45.692Z,17.66
2018-03-07T13:36:55.519Z,17.94
2018-03-07T13:38:05.334Z,18.06
2018-03-07T13:39:15.394Z,18.17
2018-03-07T13:40:25.475Z,18.2
2018-03-07T13:41:35.301Z,18.19
2018-03-07T13:42:44.911Z,18.17
2018-03-07T13:43:54.988Z,18.16
2018-03-07T13:45:05.079Z,18.19
2018-03-07T13:46:14.606Z,18.24
2018-03-07T13:47:24.678Z,18.2
2018-03-07T13:48:34.739Z,18.31
2018-03-07T13:49:44.671Z,18.26
2018-03-07T13:50:54.568Z,18.49
2018-03-07T13:52:04.639Z,18.42
2018-03-07T13:53:14.715Z,18.5
2018-03-07T13:54:24.814Z,18.61
2018-03-07T13:55:34.922Z,18.68
2018-03-07T13:56:44.479Z,18.81
2018-03-07T13:57:54.563Z,18.79
2018-03-07T13:59:04.119Z,18.89
2018-03-07T14:00:13.422Z,19.1
2018-03-07T14:01:23.313Z,19.23
2018-03-07T14:02:33.389Z,19.37
2018-03-07T14:03:43.193Z,19.43
2018-03-07T14:04:53.249Z,19.56
2018-03-07T14:06:03.350Z,19.57
2018-03-07T14:07:12.908Z,19.63
2018-03-07T14:08:22.984Z,19.67
2018-03-07T14:09:32.806Z,19.72
2018-03-07T14:10:42.614Z,19.74
2018-03-07T14:11:52.411Z,19.8
2018-03-07T14:13:01.963Z,19.67
2018-03-07T14:14:12.040Z,19.67
2018-03-07T14:15:22.116Z,19.64
2018-03-07T14:16:32.188Z,19.61
2018-03-07T14:17:42.273Z,19.63
2018-03-07T14:18:52.122Z,19.56
2018-03-07T14:20:02.195Z,19.4
2018-03-07T14:21:12.273Z,18.97
2018-03-07T14:22:22.352Z,18.9
2018-03-07T14:23:32.418Z,18.54
2018-03-07T14:24:41.974Z,18.29
2018-03-07T14:25:51.786Z,18.19
2018-03-07T14:27:01.852Z,18.1
2018-03-07T14:28:11.942Z,17.86
2018-03-07T14:29:21.776Z,17.87
2018-03-07T14:30:31.590Z,17.73
2018-03-07T14:31:41.406Z,17.76
2018-03-07T14:32:50.981Z,17.9
2018-03-07T14:34:00.807Z,18.06
2018-03-07T14:35:10.637Z,18.11
2018-03-07T14:36:20.171Z,18.23
2018-03-07T14:37:29.183Z,18.23
2018-03-07T14:38:38.735Z,18.13
2018-03-07T14:39:48.549Z,18.2
2018-03-07T14:40:58.150Z,18.1
2018-03-07T14:42:07.995Z,18.1
2018-03-07T14:43:17.812Z,18.14
2018-03-07T14:44:27.618Z,17.99
2018-03-07T14:45:37.698Z,17.92
2018-03-07T14:46:47.787Z,18.02
2018-03-07T14:47:57.888Z,17.98
2018-03-07T14:49:08.032Z,18.08
2018-03-07T14:50:17.857Z,18.13
2018-03-07T14:51:27.673Z,18.02
2018-03-07T14:52:37.750Z,17.9
2018-03-07T14:53:47.734Z,17.69
2018-03-07T14:54:57.276Z,17.57
2018-03-07T14:56:07.435Z,17.55
2018-03-07T14:57:17.251Z,17.36
2018-03-07T14:58:27.314Z,17.22
2018-03-07T14:59:36.865Z,17.12
2018-03-07T15:00:46.679Z,17.09
2018-03-07T15:01:56.233Z,17.02
2018-03-07T15:03:06.032Z,16.9
2018-03-07T15:04:16.168Z,16.95
2018-03-07T15:05:26.245Z,16.74
2018-03-07T15:06:36.050Z,16.73
2018-03-07T15:07:46.121Z,16.52
2018-03-07T15:08:56.205Z,16.58
2018-03-07T15:10:06.192Z,16.47
2018-03-07T15:11:16.324Z,16.45
2018-03-07T15:12:26.427Z,16.52
2018-03-07T15:13:36.522Z,16.37
2018-03-07T15:14:46.595Z,16.34
2018-03-07T15:15:56.731Z,16.4
2018-03-07T15:17:06.848Z,16.42
2018-03-07T15:18:16.951Z,16.54
2018-03-07T15:19:27.039Z,16.59
2018-03-07T15:20:37.134Z,16.57
2018-03-07T15:21:47.249Z,16.7
2018-03-07T15:22:57.330Z,16.76
2018-03-07T15:24:07.416Z,16.88
2018-03-07T15:25:17.495Z,16.88
2018-03-07T15:26:27.589Z,16.88
2018-03-07T15:27:37.752Z,16.97
2018-03-07T15:28:47.885Z,16.85
2018-03-07T15:29:57.973Z,16.81
2018-03-07T15:31:07.788Z,16.74
2018-03-07T15:32:17.951Z,16.76
2018-03-07T15:33:27.768Z,16.57
2018-03-07T15:34:37.828Z,16.58
2018-03-07T15:35:47.656Z,16.45
2018-03-07T15:36:57.730Z,16.4
2018-03-07T15:38:07.825Z,16.39
2018-03-07T15:39:17.995Z,16.32
2018-03-07T15:40:27.075Z,16.22
2018-03-07T15:41:37.036Z,16.14
2018-03-07T15:42:47.116Z,15.96
2018-03-07T15:43:57.214Z,16
2018-03-07T15:45:07.022Z,15.91
2018-03-07T15:46:17.115Z,15.78
2018-03-07T15:47:27.243Z,15.74
2018-03-07T15:48:37.315Z,15.83
2018-03-07T15:49:47.407Z,15.67
2018-03-07T15:50:57.272Z,15.59